Time;durP1;ratioP1;P1;durP2;ratioP2;P2;SDS_P1;SDS_P2;PMS_P1;PMS_P2;Temp;Humidity;BMP_temperature;BMP_pressure;BME280_temperature;BME280_humidity;BME280_pressure;Samples;Min_cycle;Max_cycle;Signal;HPM_P1;HPM_P2
2023/05/17 00:00:55;;;;;;;9.00;4.80;;;;;;;28.44;26.71;100154.55;108226;1251;73617;-66
2023/05/17 00:03:24;;;;;;;11.20;5.30;;;;;;;28.67;26.08;100161.42;108250;1251;61434;-65
2023/05/17 00:05:52;;;;;;;8.70;5.10;;;;;;;28.69;26.14;100157.86;108286;1255;60438;-67
2023/05/17 00:08:18;;;;;;;8.80;4.30;;;;;;;28.63;26.50;100158.73;108273;1256;74058;-68
2023/05/17 00:10:45;;;;;;;7.20;4.90;;;;;;;28.55;26.44;100162.70;108254;1251;69582;-66
2023/05/17 00:13:12;;;;;;;8.70;5.60;;;;;;;28.76;26.46;100161.46;108253;1252;73760;-67
2023/05/17 00:15:39;;;;;;;7.40;4.80;;;;;;;29.36;25.53;100159.16;108270;1255;61187;-67
2023/05/17 00:18:05;;;;;;;7.90;5.10;;;;;;;29.27;25.52;100162.90;108248;1252;60416;-66
2023/05/17 00:20:33;;;;;;;9.30;5.30;;;;;;;28.60;26.48;100163.22;108254;1251;74642;-66
2023/05/17 00:23:00;;;;;;;11.50;5.20;;;;;;;28.32;26.77;100163.63;108295;1253;70830;-67
2023/05/17 00:25:27;;;;;;;9.70;4.70;;;;;;;28.16;27.15;100167.23;108324;1256;73698;-66
2023/05/17 00:27:54;;;;;;;14.20;5.50;;;;;;;28.09;27.26;100169.52;108209;1250;60526;-66
2023/05/17 00:30:21;;;;;;;8.20;5.00;;;;;;;28.63;26.67;100169.42;108334;1251;61497;-66
2023/05/17 00:32:48;;;;;;;8.90;5.00;;;;;;;28.20;27.02;100164.81;108322;1250;74766;-66
2023/05/17 00:35:15;;;;;;;9.20;5.30;;;;;;;28.45;26.76;100167.85;108226;1255;71183;-65
2023/05/17 00:37:46;;;;;;;11.20;4.90;;;;;;;28.72;26.26;100170.55;108296;1250;72800;-65
2023/05/17 00:40:14;;;;;;;;;;;;;;;28.52;26.81;100167.17;108212;1251;61499;-65
2023/05/17 00:42:41;;;;;;;7.20;4.80;;;;;;;28.95;26.22;100166.23;108288;1252;60893;-66
2023/05/17 00:45:09;;;;;;;10.00;4.70;;;;;;;28.74;26.48;100168.02;108340;1250;74345;-65
2023/05/17 00:47:36;;;;;;;15.10;5.20;;;;;;;28.68;26.41;100169.38;108351;1254;70403;-67
2023/05/17 00:50:05;;;;;;;7.90;4.80;;;;;;;28.98;26.23;100172.73;108235;1251;73654;-67
2023/05/17 00:52:32;;;;;;;12.90;5.30;;;;;;;28.74;26.56;100173.80;108285;1256;60357;-67
2023/05/17 00:54:58;;;;;;;10.00;4.90;;;;;;;29.32;25.95;100171.83;108313;1251;61371;-66
2023/05/17 00:57:25;;;;;;;9.60;4.60;;;;;;;29.15;26.07;100175.17;108228;1254;74304;-67
2023/05/17 00:59:54;;;;;;;7.20;5.10;;;;;;;28.93;26.35;100172.05;108257;1251;71501;-65
2023/05/17 01:02:21;;;;;;;6.90;4.90;;;;;;;29.10;26.09;100173.56;108295;1259;73456;-66
2023/05/17 01:04:48;;;;;;;8.60;4.90;;;;;;;28.68;26.53;100175.12;108294;1252;60364;-65
2023/05/17 01:07:16;;;;;;;8.30;5.20;;;;;;;29.03;26.12;100176.10;108337;1251;61014;-66
2023/05/17 01:09:46;;;;;;;9.50;5.10;;;;;;;29.08;25.97;100173.90;108312;1254;74794;-67
2023/05/17 01:12:13;;;;;;;10.00;4.80;;;;;;;29.05;26.15;100173.55;108321;1251;71257;-65
2023/05/17 01:14:53;;;;;;;9.20;5.60;;;;;;;28.36;26.78;100170.42;108295;1251;72286;-66
2023/05/17 01:17:24;;;;;;;13.10;5.00;;;;;;;28.36;26.93;100169.54;108270;1251;60192;-65
2023/05/17 01:20:05;;;;;;;12.60;5.30;;;;;;;29.30;25.88;100168.14;108387;1252;61003;-67
2023/05/17 01:22:38;;;;;;;8.00;5.40;;;;;;;29.44;25.54;100170.99;108148;1251;74807;-67
2023/05/17 01:25:16;;;;;;;11.20;5.10;;;;;;;29.35;25.84;100172.60;108327;1256;69192;-67
2023/05/17 01:27:44;;;;;;;9.00;5.40;;;;;;;29.03;25.94;100179.67;108203;1251;73387;-67
2023/05/17 01:30:12;;;;;;;9.20;4.90;;;;;;;28.92;26.28;100176.13;108124;1252;61247;-66
2023/05/17 01:32:40;;;;;;;8.00;5.20;;;;;;;29.16;26.04;100173.88;108217;1251;61236;-65
2023/05/17 01:35:09;;;;;;;11.40;5.60;;;;;;;29.43;25.46;100177.10;108303;1251;73032;-66
2023/05/17 01:37:37;;;;;;;8.80;4.90;;;;;;;29.31;25.88;100176.60;108386;1250;71589;-65
2023/05/17 01:40:06;;;;;;;7.70;4.80;;;;;;;29.42;25.56;100177.07;108294;1251;71801;-64
2023/05/17 01:42:32;;;;;;;15.60;5.20;;;;;;;29.26;25.58;100174.91;108439;1256;60398;-67
2023/05/17 01:45:00;;;;;;;8.20;4.90;;;;;;;28.91;26.19;100181.61;108281;1251;61695;-65
2023/05/17 01:47:35;;;;;;;10.80;5.20;;;;;;;28.86;26.23;100187.12;108210;1251;75153;-64
2023/05/17 01:50:02;;;;;;;8.80;4.90;;;;;;;29.04;26.29;100181.80;108285;1256;69962;-67
2023/05/17 01:52:34;;;;;;;7.20;4.50;;;;;;;29.30;25.69;100179.55;108131;1258;73846;-67
2023/05/17 01:55:04;;;;;;;9.40;5.20;;;;;;;28.88;26.07;100181.21;108290;1256;60438;-67
2023/05/17 01:57:34;;;;;;;9.70;4.50;;;;;;;28.94;26.28;100182.02;108241;1251;60318;-66
2023/05/17 02:00:05;;;;;;;9.60;5.20;;;;;;;29.03;26.07;100183.91;108282;1256;74844;-67
2023/05/17 02:02:41;;;;;;;11.60;5.20;;;;;;;29.06;26.23;100179.13;108223;1255;69926;-67
2023/05/17 02:05:08;;;;;;;9.80;5.50;;;;;;;28.71;26.60;100180.02;108353;1251;72555;-67
2023/05/17 02:07:40;;;;;;;9.70;4.60;;;;;;;28.57;26.88;100177.83;108273;1252;59315;-62
2023/05/17 02:10:08;;;;;;;6.60;4.80;;;;;;;28.36;26.74;100178.90;108208;1251;60407;-65
2023/05/17 02:12:35;;;;;;;9.80;5.20;;;;;;;28.90;26.47;100183.52;108283;1253;74814;-65
2023/05/17 02:15:03;;;;;;;10.00;5.40;;;;;;;28.97;26.43;100182.76;108342;1255;72936;-64
2023/05/17 02:17:31;;;;;;;14.10;5.60;;;;;;;28.72;26.55;100181.77;108219;1252;73493;-66
2023/05/17 02:19:58;;;;;;;8.90;5.10;;;;;;;28.86;26.45;100187.22;108293;1251;61383;-65
2023/05/17 02:22:25;;;;;;;11.20;5.70;;;;;;;28.95;26.31;100187.25;108261;1251;60533;-64
2023/05/17 02:24:51;;;;;;;8.40;4.60;;;;;;;28.95;26.51;100186.58;108333;1256;73643;-67
2023/05/17 02:27:18;;;;;;;7.40;4.70;;;;;;;29.24;25.95;100188.05;108239;1251;70629;-64
2023/05/17 02:29:45;;;;;;;11.30;5.70;;;;;;;28.91;26.36;100190.11;108242;1251;72978;-65
2023/05/17 02:32:12;;;;;;;12.30;5.40;;;;;;;28.15;27.48;100193.46;108315;1250;60323;-66
2023/05/17 02:34:39;;;;;;;9.40;5.20;;;;;;;28.48;27.08;100190.60;108285;1250;60366;-65
2023/05/17 02:37:05;;;;;;;13.90;5.20;;;;;;;28.48;27.09;100186.61;108240;1254;74514;-65
2023/05/17 02:39:32;;;;;;;11.50;5.00;;;;;;;28.47;26.99;100187.60;108319;1253;70814;-68
2023/05/17 02:41:59;;;;;;;6.70;4.60;;;;;;;28.52;26.96;100189.77;108294;1256;74024;-67
2023/05/17 02:44:26;;;;;;;7.80;5.30;;;;;;;28.58;27.00;100193.92;108200;1254;60693;-67
2023/05/17 02:46:52;;;;;;;11.70;5.20;;;;;;;27.95;27.86;100193.89;108314;1251;61686;-66
2023/05/17 02:49:19;;;;;;;11.50;5.20;;;;;;;28.17;27.48;100196.13;108309;1254;75274;-66
2023/05/17 02:51:46;;;;;;;9.00;5.30;;;;;;;28.49;27.31;100197.52;108366;1252;70930;-67
2023/05/17 02:54:13;;;;;;;12.80;5.30;;;;;;;29.13;26.65;100200.21;108287;1250;73516;-65
2023/05/17 02:56:40;;;;;;;11.20;5.00;;;;;;;29.38;26.45;100196.70;108290;1251;61400;-64
2023/05/17 02:59:07;;;;;;;10.60;5.60;;;;;;;29.25;26.32;100198.36;108411;1251;61200;-66
2023/05/17 03:01:35;;;;;;;12.10;5.50;;;;;;;29.19;26.44;100204.65;108211;1251;73935;-67
2023/05/17 03:04:02;;;;;;;10.80;5.50;;;;;;;29.52;26.20;100204.02;108509;1251;70465;-68
2023/05/17 03:06:30;;;;;;;12.70;5.60;;;;;;;29.32;26.19;100209.47;108374;1251;73955;-66
2023/05/17 03:08:58;;;;;;;10.40;5.00;;;;;;;29.22;26.39;100210.40;108379;1256;61613;-66
2023/05/17 03:11:25;;;;;;;15.40;5.50;;;;;;;29.04;26.72;100212.64;108382;1251;60974;-68
2023/05/17 03:13:54;;;;;;;9.30;5.50;;;;;;;28.78;27.08;100208.92;108375;1251;74123;-66
2023/05/17 03:16:25;;;;;;;9.80;5.10;;;;;;;29.09;26.77;100213.52;108200;1251;70451;-67
2023/05/17 03:18:52;;;;;;;12.30;5.80;;;;;;;29.12;26.64;100212.27;108209;1251;73891;-66
2023/05/17 03:21:20;;;;;;;9.10;5.10;;;;;;;28.84;26.91;100211.89;108420;1251;61299;-64
2023/05/17 03:23:47;;;;;;;11.60;5.50;;;;;;;29.06;26.76;100215.52;108454;1251;61832;-67
2023/05/17 03:26:15;;;;;;;11.70;5.10;;;;;;;29.50;26.61;100214.64;108300;1251;74310;-67
2023/05/17 03:28:46;;;;;;;12.20;5.20;;;;;;;29.49;26.49;100214.54;108188;1251;71366;-67
2023/05/17 03:31:13;;;;;;;7.70;5.10;;;;;;;29.59;26.35;100215.14;108344;1256;73931;-67
2023/05/17 03:33:41;;;;;;;10.40;5.10;;;;;;;29.66;26.23;100219.55;108327;1251;60464;-68
2023/05/17 03:36:08;;;;;;;9.60;4.90;;;;;;;29.67;26.49;100221.36;108378;1256;61651;-66
2023/05/17 03:38:35;;;;;;;10.80;5.60;;;;;;;29.68;26.19;100229.05;108217;1251;73112;-67
2023/05/17 03:41:02;;;;;;;11.90;5.80;;;;;;;29.69;26.45;100233.81;108162;1251;71309;-68
2023/05/17 03:43:29;;;;;;;20.10;5.60;;;;;;;29.83;26.07;100234.31;108331;1251;72873;-67
2023/05/17 03:45:57;;;;;;;10.20;5.90;;;;;;;29.64;26.24;100234.58;108188;1251;60690;-67
2023/05/17 03:48:24;;;;;;;9.90;5.60;;;;;;;29.69;26.10;100235.27;108312;1251;60821;-67
2023/05/17 03:50:52;;;;;;;7.60;5.00;;;;;;;29.67;26.31;100231.77;108356;1251;72603;-65
2023/05/17 03:53:18;;;;;;;12.70;5.00;;;;;;;29.29;26.86;100235.11;108288;1253;68554;-69
2023/05/17 03:55:45;;;;;;;13.60;5.60;;;;;;;29.38;26.95;100241.73;108143;1251;72290;-68
2023/05/17 03:58:12;;;;;;;11.50;5.70;;;;;;;29.40;26.74;100244.22;108357;1251;61618;-67
2023/05/17 04:00:40;;;;;;;11.30;5.30;;;;;;;29.37;26.95;100252.81;108253;1253;61522;-68
2023/05/17 04:03:09;;;;;;;12.50;5.00;;;;;;;29.34;27.08;100256.15;108362;1251;74869;-65
2023/05/17 04:05:36;;;;;;;13.80;5.20;;;;;;;29.12;27.41;100258.77;108147;1251;69586;-67
2023/05/17 04:08:04;;;;;;;15.30;5.90;;;;;;;29.17;27.60;100260.07;108188;1257;73034;-66
2023/05/17 04:10:31;;;;;;;12.20;6.30;;;;;;;29.44;27.41;100263.08;108359;1251;61313;-67
2023/05/17 04:12:57;;;;;;;10.80;5.90;;;;;;;29.71;27.25;100259.79;108242;1251;61433;-65
2023/05/17 04:15:25;;;;;;;11.60;5.80;;;;;;;29.65;27.06;100256.33;108298;1251;74834;-66
2023/05/17 04:17:52;;;;;;;11.60;6.00;;;;;;;29.61;27.26;100254.82;108192;1251;69885;-65
2023/05/17 04:20:21;;;;;;;12.60;5.50;;;;;;;29.16;27.83;100258.38;108262;1257;71683;-68
2023/05/17 04:22:48;;;;;;;10.90;6.40;;;;;;;29.92;27.07;100261.61;108129;1256;61383;-67
2023/05/17 04:25:15;;;;;;;12.60;5.90;;;;;;;30.19;26.58;100266.73;108255;1251;60372;-66
2023/05/17 04:27:45;;;;;;;12.30;5.90;;;;;;;30.34;26.31;100261.91;108350;1251;74046;-66
2023/05/17 04:30:13;;;;;;;10.60;5.60;;;;;;;29.98;26.67;100269.75;108369;1251;71467;-66
2023/05/17 04:32:41;;;;;;;11.50;5.30;;;;;;;30.40;26.39;100268.67;108329;1250;72436;-66
2023/05/17 04:35:09;;;;;;;7.60;5.80;;;;;;;30.49;26.03;100270.64;108430;1251;60551;-65
2023/05/17 04:37:39;;;;;;;10.50;5.90;;;;;;;30.10;26.71;100267.20;108443;1251;61575;-67
2023/05/17 04:40:13;;;;;;;11.40;5.80;;;;;;;29.97;26.85;100271.41;108274;1251;73957;-67
2023/05/17 04:42:41;;;;;;;12.50;5.30;;;;;;;29.98;26.71;100270.13;108358;1251;68594;-64
2023/05/17 04:45:09;;;;;;;8.30;5.10;;;;;;;29.90;26.75;100271.90;108269;1251;73234;-66
2023/05/17 04:47:36;;;;;;;12.20;5.80;;;;;;;30.25;26.27;100268.59;108324;1251;60519;-68
2023/05/17 04:50:04;;;;;;;7.10;5.00;;;;;;;30.28;26.56;100275.09;108375;1251;60322;-66
2023/05/17 04:54:31;;;;;;;11.70;6.10;;;;;;;26.49;30.94;100283.43;104984;1291;600176;-66
2023/05/17 04:56:59;;;;;;;14.50;5.80;;;;;;;27.88;29.59;100283.46;107320;1267;60704;-68
2023/05/17 04:59:48;;;;;;;9.40;4.90;;;;;;;28.52;28.74;100284.39;107252;1267;60802;-69
2023/05/17 05:02:16;;;;;;;13.00;5.30;;;;;;;28.96;28.04;100289.52;107284;1267;74567;-68
2023/05/17 05:04:43;;;;;;;8.50;4.70;;;;;;;29.19;27.93;100290.84;107323;1267;71735;-67
2023/05/17 05:07:11;;;;;;;13.30;5.50;;;;;;;29.22;27.43;100290.33;107157;1271;195516;-68
2023/05/17 05:09:38;;;;;;;12.20;5.60;;;;;;;29.44;27.44;100291.55;107372;1269;59413;-68
2023/05/17 05:12:05;;;;;;;10.30;5.20;;;;;;;29.75;26.99;100292.98;107339;1263;60577;-68
2023/05/17 05:14:33;;;;;;;7.70;4.70;;;;;;;30.06;26.56;100292.77;107346;1263;71989;-68
2023/05/17 05:17:00;;;;;;;9.50;5.00;;;;;;;29.66;26.96;100301.88;107400;1269;70047;-68
2023/05/17 05:19:28;;;;;;;16.20;4.90;;;;;;;30.03;26.32;100295.98;107413;1263;72147;-66
2023/05/17 05:21:56;;;;;;;10.70;5.10;;;;;;;29.79;26.50;100300.83;107397;1263;61382;-68
2023/05/17 05:24:23;;;;;;;10.10;4.80;;;;;;;29.69;26.66;100302.17;107403;1262;59691;-67
2023/05/17 05:26:50;;;;;;;13.60;5.60;;;;;;;30.02;26.21;100300.61;107332;1272;74460;-68
2023/05/17 05:29:18;;;;;;;10.30;5.40;;;;;;;29.69;26.74;100304.02;107387;1264;72273;-70
2023/05/17 05:31:45;;;;;;;9.80;5.20;;;;;;;29.59;26.68;100302.81;107384;1267;73201;-68
2023/05/17 05:34:12;;;;;;;11.20;5.00;;;;;;;29.94;26.35;100302.05;107526;1261;60390;-68
2023/05/17 05:36:40;;;;;;;11.70;4.80;;;;;;;29.99;26.15;100305.41;107512;1260;59961;-67
2023/05/17 05:39:08;;;;;;;12.80;4.60;;;;;;;30.04;26.30;100307.55;107568;1260;75276;-66
2023/05/17 05:41:36;;;;;;;9.70;5.00;;;;;;;30.08;26.21;100314.70;107722;1257;72581;-67
2023/05/17 05:44:03;;;;;;;13.00;4.80;;;;;;;30.54;25.57;100312.39;107471;1257;72517;-67
2023/05/17 05:46:30;;;;;;;9.20;4.40;;;;;;;30.25;25.91;100316.15;107718;1257;62327;-66
2023/05/17 05:48:57;;;;;;;7.60;4.50;;;;;;;30.75;25.77;100313.37;108058;1259;61453;-65
2023/05/17 05:51:24;;;;;;;7.00;4.50;;;;;;;30.90;25.58;100313.26;108126;1254;74988;-67
2023/05/17 05:53:51;;;;;;;14.30;5.60;;;;;;;30.88;25.50;100315.06;107971;1254;71461;-68
2023/05/17 05:56:19;;;;;;;9.60;4.90;;;;;;;31.26;25.16;100317.95;108185;1254;74858;-66
2023/05/17 05:58:49;;;;;;;13.40;5.40;;;;;;;31.19;24.69;100322.07;107998;1260;62232;-66
2023/05/17 06:01:16;;;;;;;12.00;4.80;;;;;;;31.02;25.09;100321.06;107977;1254;61572;-66
2023/05/17 06:03:43;;;;;;;11.70;5.20;;;;;;;31.06;25.05;100317.95;108155;1254;74288;-67
2023/05/17 06:06:10;;;;;;;9.10;4.70;;;;;;;31.00;25.22;100318.13;108094;1254;71256;-68
2023/05/17 06:08:37;;;;;;;10.70;5.00;;;;;;;31.11;24.91;100320.61;108014;1259;73076;-65
2023/05/17 06:11:04;;;;;;;15.70;5.10;;;;;;;31.11;24.77;100319.23;108119;1254;62602;-67
2023/05/17 06:13:30;;;;;;;13.60;5.40;;;;;;;31.16;25.01;100318.77;108127;1254;59920;-70
2023/05/17 06:15:58;;;;;;;10.70;4.80;;;;;;;31.44;24.72;100319.56;108065;1254;72045;-69
2023/05/17 06:18:25;;;;;;;10.20;4.50;;;;;;;31.86;24.07;100319.98;108042;1254;72146;-67
2023/05/17 06:20:52;;;;;;;9.50;4.70;;;;;;;32.44;23.61;100321.23;108144;1253;74946;-69
2023/05/17 06:23:19;;;;;;;15.10;4.70;;;;;;;32.32;23.51;100327.77;108046;1253;62667;-69
2023/05/17 06:25:46;;;;;;;6.30;3.80;;;;;;;32.42;23.34;100323.30;108070;1259;61921;-68
2023/05/17 06:28:12;;;;;;;12.10;4.80;;;;;;;32.52;23.14;100326.45;107977;1259;75024;-67
2023/05/17 06:30:39;;;;;;;12.40;4.40;;;;;;;32.43;22.99;100326.33;108071;1254;71297;-68
2023/05/17 06:33:07;;;;;;;10.20;4.40;;;;;;;32.60;22.95;100330.54;108001;1254;74882;-68
2023/05/17 06:35:35;;;;;;;8.00;4.20;;;;;;;32.63;22.96;100330.48;108000;1255;60038;-67
2023/05/17 06:38:22;;;;;;;8.90;4.30;;;;;;;32.42;23.28;100330.52;108067;1254;62658;-67
2023/05/17 06:40:56;;;;;;;11.80;4.40;;;;;;;32.36;23.30;100333.34;108043;1254;74960;-68
2023/05/17 06:43:24;;;;;;;11.60;4.40;;;;;;;32.79;22.85;100328.91;108222;1254;69449;-69
2023/05/17 06:45:51;;;;;;;9.30;4.00;;;;;;;33.02;22.83;100331.90;108033;1254;74228;-68
2023/05/17 06:48:18;;;;;;;10.30;4.40;;;;;;;32.72;22.96;100333.64;108099;1254;63004;-66
2023/05/17 06:50:45;;;;;;;8.80;4.80;;;;;;;32.37;23.29;100336.70;108132;1254;60121;-68
2023/05/17 06:53:12;;;;;;;8.30;5.00;;;;;;;32.93;22.78;100332.16;107998;1253;72828;-67
2023/05/17 06:55:40;;;;;;;13.90;4.50;;;;;;;34.18;21.37;100336.03;108075;1254;70499;-67
2023/05/17 06:58:07;;;;;;;7.80;3.90;;;;;;;34.73;21.16;100334.86;108031;1257;64750;-68
2023/05/17 07:00:35;;;;;;;9.40;4.00;;;;;;;34.83;20.52;100330.45;108170;1253;59598;-69
2023/05/17 07:03:04;;;;;;;9.10;4.00;;;;;;;35.21;20.29;100327.02;108085;1259;59611;-68
2023/05/17 07:05:31;;;;;;;13.30;4.00;;;;;;;35.72;19.96;100328.38;108072;1259;65453;-69
2023/05/17 07:07:59;;;;;;;18.00;4.70;;;;;;;35.79;19.27;100330.27;108174;1258;64001;-66
2023/05/17 07:10:26;;;;;;;15.60;4.40;;;;;;;36.17;18.90;100327.86;108064;1254;66039;-69
2023/05/17 07:12:53;;;;;;;14.90;4.30;;;;;;;36.61;18.61;100327.92;108135;1260;59679;-68
2023/05/17 07:15:20;;;;;;;5.70;2.90;;;;;;;36.75;18.03;100329.17;107976;1254;60207;-67
2023/05/17 07:17:47;;;;;;;6.70;3.30;;;;;;;36.66;17.98;100328.10;108118;1254;66744;-67
2023/05/17 07:20:14;;;;;;;6.50;3.20;;;;;;;36.79;18.07;100328.60;108229;1254;63707;-67
2023/05/17 07:22:41;;;;;;;6.50;2.80;;;;;;;36.83;17.85;100328.52;108050;1259;66324;-67
2023/05/17 07:25:09;;;;;;;4.90;2.90;;;;;;;36.91;17.95;100330.56;108055;1254;61697;-67
2023/05/17 07:27:36;;;;;;;7.00;2.90;;;;;;;36.92;17.51;100329.76;108064;1254;59403;-68
2023/05/17 07:30:03;;;;;;;5.90;3.00;;;;;;;37.41;17.17;100326.93;108092;1255;66342;-69
2023/05/17 07:32:30;;;;;;;13.90;4.00;;;;;;;37.60;17.13;100330.20;108042;1258;63691;-68
2023/05/17 07:34:57;;;;;;;5.50;2.80;;;;;;;37.66;17.03;100329.23;108053;1258;65431;-67
2023/05/17 07:37:23;;;;;;;4.30;2.50;;;;;;;37.94;16.64;100334.23;108211;1254;59640;-67
2023/05/17 07:39:50;;;;;;;6.90;3.10;;;;;;;37.63;16.70;100340.52;108093;1254;59737;-68
2023/05/17 07:42:17;;;;;;;3.80;2.40;;;;;;;37.43;16.77;100336.06;108013;1260;66330;-67
2023/05/17 07:44:47;;;;;;;5.20;2.50;;;;;;;37.47;16.86;100335.79;108215;1260;62724;-67
2023/05/17 07:47:15;;;;;;;7.30;3.00;;;;;;;37.43;17.06;100333.43;108157;1253;65856;-67
2023/05/17 07:49:43;;;;;;;6.00;3.00;;;;;;;37.39;17.05;100334.91;108179;1253;59527;-68
2023/05/17 07:52:10;;;;;;;7.90;3.00;;;;;;;37.38;17.25;100336.12;108409;1254;59352;-68
2023/05/17 07:54:37;;;;;;;15.20;3.50;;;;;;;37.51;17.29;100336.67;108170;1253;66675;-67
2023/05/17 07:57:04;;;;;;;6.40;2.70;;;;;;;37.65;17.02;100335.63;108182;1259;63101;-68
2023/05/17 07:59:31;;;;;;;7.20;2.80;;;;;;;37.51;17.06;100341.68;108118;1258;66034;-69
2023/05/17 08:01:58;;;;;;;8.00;2.70;;;;;;;37.64;16.79;100340.17;108151;1254;59495;-70
2023/05/17 08:04:25;;;;;;;4.60;2.70;;;;;;;37.59;16.78;100342.31;108203;1254;59561;-68
2023/05/17 08:06:54;;;;;;;4.70;2.40;;;;;;;37.52;16.85;100341.92;108177;1255;66334;-68
2023/05/17 08:09:21;;;;;;;5.50;2.40;;;;;;;37.04;16.70;100343.77;108208;1253;63968;-68
2023/05/17 08:11:48;;;;;;;4.40;2.60;;;;;;;36.60;17.17;100343.80;108307;1254;66090;-71
2023/05/17 08:14:15;;;;;;;8.40;3.40;;;;;;;36.49;17.24;100342.27;108043;1260;59539;-70
2023/05/17 08:16:42;;;;;;;7.60;3.20;;;;;;;36.40;17.46;100349.41;108092;1252;59228;-71
2023/05/17 08:19:11;;;;;;;7.00;3.10;;;;;;;36.58;17.23;100348.04;108109;1257;66698;-71
2023/05/17 08:21:39;;;;;;;7.80;3.10;;;;;;;36.43;17.49;100348.92;108230;1254;62317;-67
2023/05/17 08:24:07;;;;;;;9.00;2.90;;;;;;;36.62;17.19;100347.85;108042;1255;65008;-67
2023/05/17 08:26:33;;;;;;;5.40;3.00;;;;;;;36.32;17.40;100351.84;108123;1253;59641;-68
2023/05/17 08:29:01;;;;;;;14.20;3.70;;;;;;;36.14;17.76;100350.91;108100;1254;59583;-67
2023/05/17 08:31:28;;;;;;;6.10;3.10;;;;;;;36.38;18.02;100352.73;108150;1254;65261;-68
2023/05/17 08:33:55;;;;;;;8.10;3.30;;;;;;;36.44;17.81;100346.05;108167;1254;63920;-68
2023/05/17 08:36:22;;;;;;;8.50;3.60;;;;;;;36.54;17.69;100348.60;108197;1254;66048;-68
2023/05/17 08:38:50;;;;;;;8.60;3.00;;;;;;;36.64;17.57;100347.37;107940;1260;59658;-69
2023/05/17 08:41:18;;;;;;;10.60;2.90;;;;;;;36.72;17.48;100347.34;108063;1254;58374;-68
2023/05/17 08:43:46;;;;;;;14.50;3.80;;;;;;;36.84;17.46;100346.88;108061;1254;66377;-69
2023/05/17 08:46:12;;;;;;;8.30;3.70;;;;;;;37.14;17.61;100346.91;108033;1254;63645;-69
2023/05/17 08:48:40;;;;;;;9.70;4.40;;;;;;;37.36;17.39;100346.17;107937;1254;66301;-70
2023/05/17 08:51:10;;;;;;;9.50;4.40;;;;;;;37.23;17.21;100349.20;108007;1259;59080;-69
2023/05/17 08:53:37;;;;;;;6.20;3.30;;;;;;;37.37;17.28;100349.39;108068;1254;59496;-69
2023/05/17 08:56:05;;;;;;;7.90;3.60;;;;;;;37.28;17.43;100350.29;108061;1254;66554;-68
2023/05/17 08:58:34;;;;;;;10.90;3.20;;;;;;;37.43;17.46;100350.89;107907;1254;63851;-70
2023/05/17 09:01:17;;;;;;;6.30;3.60;;;;;;;37.28;17.30;100354.60;107890;1254;66134;-71
2023/05/17 09:03:50;;;;;;;14.10;4.20;;;;;;;37.48;17.30;100355.50;108013;1258;60558;-70
2023/05/17 09:06:21;;;;;;;8.90;3.60;;;;;;;37.60;17.23;100354.11;108071;1254;60299;-71
2023/05/17 09:08:51;;;;;;;6.90;4.00;;;;;;;36.94;17.79;100357.08;108031;1253;65807;-69
2023/05/17 09:11:26;;;;;;;12.20;5.20;;;;;;;36.99;17.48;100352.95;108070;1254;63876;-70
2023/05/17 09:14:00;;;;;;;11.20;4.70;;;;;;;37.11;17.14;100357.80;108052;1258;64857;-69
2023/05/17 09:16:28;;;;;;;11.40;5.00;;;;;;;37.28;17.14;100353.50;108160;1255;59631;-68
2023/05/17 09:18:56;;;;;;;13.70;6.20;;;;;;;37.82;17.09;100354.70;108144;1254;60211;-69
2023/05/17 09:21:23;;;;;;;10.20;5.10;;;;;;;38.03;17.01;100354.75;108176;1258;67327;-68
2023/05/17 09:23:51;;;;;;;15.50;6.20;;;;;;;38.33;16.72;100357.41;108086;1258;63780;-69
2023/05/17 09:26:38;;;;;;;;;;;;;;;38.33;16.49;100358.88;108141;1253;66263;-68
2023/05/17 09:29:13;;;;;;;15.10;5.80;;;;;;;38.27;16.59;100360.27;108178;1255;60320;-68
2023/05/17 09:31:40;;;;;;;14.80;5.50;;;;;;;37.82;16.78;100360.28;108094;1254;60411;-70
2023/05/17 09:34:07;;;;;;;15.30;5.60;;;;;;;37.12;17.26;100367.98;108143;1253;65863;-69
2023/05/17 09:36:36;;;;;;;12.80;4.30;;;;;;;37.53;16.96;100365.14;108101;1252;63445;-70
2023/05/17 09:39:05;;;;;;;7.20;3.50;;;;;;;37.96;16.30;100368.88;108256;1254;64413;-69
2023/05/17 09:41:32;;;;;;;9.80;4.00;;;;;;;37.91;16.18;100365.78;108146;1254;60359;-69
2023/05/17 09:44:00;;;;;;;9.30;4.20;;;;;;;37.79;16.31;100363.31;108202;1254;60354;-70
2023/05/17 09:46:27;;;;;;;8.10;4.00;;;;;;;37.92;16.29;100359.00;108177;1254;65311;-71
2023/05/17 09:48:55;;;;;;;7.30;3.70;;;;;;;37.90;15.96;100358.61;108160;1254;63690;-69
2023/05/17 09:51:32;;;;;;;6.50;3.60;;;;;;;37.54;16.41;100358.39;108146;1254;66543;-69
2023/05/17 09:53:59;;;;;;;8.50;3.40;;;;;;;37.89;16.31;100355.63;108117;1255;60364;-70
2023/05/17 09:56:29;;;;;;;7.80;3.50;;;;;;;38.57;15.80;100355.46;108151;1254;60450;-68
2023/05/17 09:59:00;;;;;;;7.80;3.10;;;;;;;38.62;15.93;100352.23;108127;1254;66103;-69
2023/05/17 10:01:28;;;;;;;6.50;3.20;;;;;;;38.33;16.07;100349.65;108035;1253;63524;-69
2023/05/17 10:03:58;;;;;;;8.60;3.50;;;;;;;38.64;15.99;100348.34;108171;1254;66052;-70
2023/05/17 10:06:25;;;;;;;6.30;3.20;;;;;;;38.73;15.59;100347.35;108103;1254;60338;-69
2023/05/17 10:09:14;;;;;;;5.60;3.20;;;;;;;38.64;15.53;100344.88;108051;1254;60332;-69
2023/05/17 10:11:45;;;;;;;7.80;3.40;;;;;;;38.85;15.47;100342.42;108112;1254;67504;-69
2023/05/17 10:14:21;;;;;;;;;;;;;;;38.63;15.42;100344.23;108119;1254;62714;-67
2023/05/17 10:16:49;;;;;;;5.20;2.30;;;;;;;38.34;15.52;100346.00;108165;1254;65992;-67
2023/05/17 10:19:18;;;;;;;4.90;2.70;;;;;;;38.10;15.31;100344.00;108148;1258;60328;-69
2023/05/17 10:21:49;;;;;;;6.70;2.20;;;;;;;37.35;15.37;100341.46;108043;1252;60501;-67
2023/05/17 10:24:16;;;;;;;6.10;2.80;;;;;;;36.95;15.85;100340.53;108092;1254;67348;-69
2023/05/17 10:26:43;;;;;;;9.40;2.70;;;;;;;37.46;16.16;100339.23;107935;1259;63624;-69
2023/05/17 10:29:10;;;;;;;5.80;2.70;;;;;;;37.75;16.65;100338.89;108036;1254;66130;-68
2023/05/17 10:31:37;;;;;;;6.80;2.70;;;;;;;38.00;16.51;100336.25;108029;1254;60460;-68
2023/05/17 10:34:05;;;;;;;11.40;3.50;;;;;;;38.45;16.44;100341.90;107791;1262;59239;-69
2023/05/17 10:36:32;;;;;;;12.20;4.00;;;;;;;38.22;16.51;100341.65;108045;1254;67200;-70
2023/05/17 10:38:59;;;;;;;14.20;4.60;;;;;;;38.31;16.59;100340.92;108088;1254;63470;-69
2023/05/17 10:41:29;;;;;;;11.90;3.70;;;;;;;38.57;16.30;100344.36;107839;1260;66144;-69
2023/05/17 10:43:56;;;;;;;13.70;3.90;;;;;;;38.60;16.34;100342.58;107911;1254;60345;-70
2023/05/17 10:46:23;;;;;;;22.80;4.20;;;;;;;38.68;16.32;100343.09;107949;1254;60419;-68
2023/05/17 10:48:51;;;;;;;14.70;3.40;;;;;;;38.23;16.65;100341.54;107932;1259;66984;-71
2023/05/17 10:51:36;;;;;;;11.40;3.40;;;;;;;38.00;16.92;100341.42;108097;1254;63824;-67
2023/05/17 10:54:04;;;;;;;11.20;3.10;;;;;;;38.23;16.40;100340.15;108073;1257;65907;-68
2023/05/17 10:56:31;;;;;;;14.90;3.40;;;;;;;37.79;16.49;100338.52;107977;1256;60198;-69
2023/05/17 10:59:23;;;;;;;5.80;2.70;;;;;;;37.77;16.23;100336.98;108076;1254;60322;-70
2023/05/17 11:02:03;;;;;;;7.40;2.80;;;;;;;37.96;16.29;100332.02;108160;1254;66992;-68
2023/05/17 11:04:37;;;;;;;7.80;2.90;;;;;;;38.28;16.05;100334.63;108068;1254;62551;-68
2023/05/17 11:07:27;;;;;;;7.60;3.00;;;;;;;38.11;16.12;100331.22;108117;1254;65190;-69
2023/05/17 11:10:05;;;;;;;6.70;2.70;;;;;;;37.94;16.02;100332.84;108171;1254;60492;-69
2023/05/17 11:12:41;;;;;;;9.40;2.60;;;;;;;37.64;15.99;100331.41;107925;1253;59159;-67
2023/05/17 11:15:13;;;;;;;6.00;2.50;;;;;;;37.20;16.65;100334.14;108177;1253;67089;-68
2023/05/17 11:17:43;;;;;;;9.90;2.70;;;;;;;36.74;16.79;100341.56;108107;1254;63671;-69
2023/05/17 11:20:13;;;;;;;3.80;2.40;;;;;;;36.55;17.06;100336.55;108026;1253;65802;-69
2023/05/17 11:23:15;;;;;;;7.40;2.90;;;;;;;36.91;16.69;100340.02;108058;1254;61068;-69